sensor_id;sensor_type;location;lat;lon;timestamp;pressure;altitude;pressure_sealevel;temperature;humidity
44765;BME280;30484;52.382;5.260;2022-12-29T00:01:01;99987.31;;;13.36;100.00
44765;BME280;30484;52.382;5.260;2022-12-29T00:03:31;99980.41;;;13.32;100.00
44765;BME280;30484;52.382;5.260;2022-12-29T00:06:00;99976.72;;;13.21;100.00
44765;BME280;30484;52.382;5.260;2022-12-29T00:08:31;99975.69;;;13.11;100.00
44765;BME280;30484;52.382;5.260;2022-12-29T00:11:08;99957.25;;;13.30;100.00
44765;BME280;30484;52.382;5.260;2022-12-29T00:13:37;99957.72;;;13.24;100.00
44765;BME280;30484;52.382;5.260;2022-12-29T00:16:24;99940.75;;;13.59;100.00
44765;BME280;30484;52.382;5.260;2022-12-29T00:18:53;99945.22;;;13.36;100.00
44765;BME280;30484;52.382;5.260;2022-12-29T00:21:35;99928.56;;;13.44;100.00
44765;BME280;30484;52.382;5.260;2022-12-29T00:28:12;99926.59;;;13.46;100.00
44765;BME280;30484;52.382;5.260;2022-12-29T00:31:01;99921.22;;;13.46;100.00
44765;BME280;30484;52.382;5.260;2022-12-29T00:33:48;99920.31;;;13.70;100.00
44765;BME280;30484;52.382;5.260;2022-12-29T00:36:36;99913.38;;;13.32;100.00
44765;BME280;30484;52.382;5.260;2022-12-29T00:39:10;99899.91;;;13.56;100.00
44765;BME280;30484;52.382;5.260;2022-12-29T00:42:03;99896.69;;;13.04;100.00
44765;BME280;30484;52.382;5.260;2022-12-29T00:45:04;99892.44;;;13.48;100.00
44765;BME280;30484;52.382;5.260;2022-12-29T00:47:33;99891.06;;;13.31;100.00
44765;BME280;30484;52.382;5.260;2022-12-29T00:50:02;99894.75;;;13.41;100.00
44765;BME280;30484;52.382;5.260;2022-12-29T00:52:29;99868.78;;;13.53;100.00
44765;BME280;30484;52.382;5.260;2022-12-29T00:54:58;99871.25;;;13.90;100.00
44765;BME280;30484;52.382;5.260;2022-12-29T00:57:27;99859.53;;;13.69;100.00
44765;BME280;30484;52.382;5.260;2022-12-29T00:59:55;99863.69;;;13.73;100.00
44765;BME280;30484;52.382;5.260;2022-12-29T01:02:27;99858.91;;;13.76;100.00
44765;BME280;30484;52.382;5.260;2022-12-29T01:04:56;99856.09;;;13.67;100.00
44765;BME280;30484;52.382;5.260;2022-12-29T01:07:25;99848.94;;;13.90;100.00
44765;BME280;30484;52.382;5.260;2022-12-29T01:09:54;99853.44;;;13.67;100.00
44765;BME280;30484;52.382;5.260;2022-12-29T01:12:36;99846.63;;;13.74;100.00
44765;BME280;30484;52.382;5.260;2022-12-29T01:15:14;99844.41;;;13.56;100.00
44765;BME280;30484;52.382;5.260;2022-12-29T01:17:46;99831.25;;;13.76;100.00
44765;BME280;30484;52.382;5.260;2022-12-29T01:20:15;99836.28;;;13.34;100.00
44765;BME280;30484;52.382;5.260;2022-12-29T01:22:44;99843.44;;;13.57;100.00
44765;BME280;30484;52.382;5.260;2022-12-29T01:25:15;99835.38;;;13.57;100.00
44765;BME280;30484;52.382;5.260;2022-12-29T01:27:44;99836.97;;;13.71;100.00
44765;BME280;30484;52.382;5.260;2022-12-29T01:30:13;99826.25;;;13.60;100.00
44765;BME280;30484;52.382;5.260;2022-12-29T01:32:47;99835.13;;;13.60;100.00
44765;BME280;30484;52.382;5.260;2022-12-29T01:35:16;99839.53;;;13.61;100.00
44765;BME280;30484;52.382;5.260;2022-12-29T01:37:44;99840.25;;;13.75;100.00
44765;BME280;30484;52.382;5.260;2022-12-29T01:40:13;99845.88;;;13.60;100.00
44765;BME280;30484;52.382;5.260;2022-12-29T01:42:46;99843.81;;;13.53;100.00
44765;BME280;30484;52.382;5.260;2022-12-29T01:45:16;99836.97;;;13.60;100.00
44765;BME280;30484;52.382;5.260;2022-12-29T01:47:53;99836.00;;;13.50;100.00
44765;BME280;30484;52.382;5.260;2022-12-29T01:50:29;99834.72;;;13.20;100.00
44765;BME280;30484;52.382;5.260;2022-12-29T01:53:02;99854.53;;;13.41;100.00
44765;BME280;30484;52.382;5.260;2022-12-29T01:55:38;99854.88;;;13.59;100.00
44765;BME280;30484;52.382;5.260;2022-12-29T01:58:11;99834.03;;;13.52;100.00
44765;BME280;30484;52.382;5.260;2022-12-29T02:00:44;99853.31;;;13.57;100.00
44765;BME280;30484;52.382;5.260;2022-12-29T02:03:17;99854.91;;;13.71;100.00
44765;BME280;30484;52.382;5.260;2022-12-29T02:05:55;99855.00;;;13.46;100.00
44765;BME280;30484;52.382;5.260;2022-12-29T02:08:28;99826.69;;;13.42;100.00
44765;BME280;30484;52.382;5.260;2022-12-29T02:10:59;99830.41;;;13.75;100.00
44765;BME280;30484;52.382;5.260;2022-12-29T02:13:29;99838.56;;;13.51;100.00
44765;BME280;30484;52.382;5.260;2022-12-29T02:16:30;99838.31;;;13.54;100.00
44765;BME280;30484;52.382;5.260;2022-12-29T02:19:40;99842.59;;;13.45;100.00
44765;BME280;30484;52.382;5.260;2022-12-29T02:22:26;99832.03;;;13.20;100.00
44765;BME280;30484;52.382;5.260;2022-12-29T02:28:37;99852.22;;;13.37;100.00
44765;BME280;30484;52.382;5.260;2022-12-29T02:34:56;99841.13;;;13.53;100.00
44765;BME280;30484;52.382;5.260;2022-12-29T02:37:43;99845.44;;;13.20;100.00
44765;BME280;30484;52.382;5.260;2022-12-29T02:40:29;99848.34;;;13.28;100.00
44765;BME280;30484;52.382;5.260;2022-12-29T02:43:12;99844.13;;;13.48;100.00
44765;BME280;30484;52.382;5.260;2022-12-29T02:45:49;99855.72;;;13.37;100.00
44765;BME280;30484;52.382;5.260;2022-12-29T02:48:28;99834.66;;;13.55;100.00
44765;BME280;30484;52.382;5.260;2022-12-29T02:51:02;99832.69;;;13.46;100.00
44765;BME280;30484;52.382;5.260;2022-12-29T02:53:34;99841.47;;;13.59;100.00
44765;BME280;30484;52.382;5.260;2022-12-29T02:56:21;99833.19;;;13.62;100.00
44765;BME280;30484;52.382;5.260;2022-12-29T02:58:50;99836.03;;;13.14;100.00
44765;BME280;30484;52.382;5.260;2022-12-29T03:01:42;99843.47;;;13.22;100.00
44765;BME280;30484;52.382;5.260;2022-12-29T03:05:28;99833.09;;;13.06;100.00
44765;BME280;30484;52.382;5.260;2022-12-29T03:09:02;99851.63;;;13.09;100.00
44765;BME280;30484;52.382;5.260;2022-12-29T03:12:01;99837.28;;;13.21;100.00
44765;BME280;30484;52.382;5.260;2022-12-29T03:14:47;99836.22;;;13.00;100.00
44765;BME280;30484;52.382;5.260;2022-12-29T03:17:48;99848.09;;;13.08;100.00
44765;BME280;30484;52.382;5.260;2022-12-29T03:20:29;99858.91;;;12.95;100.00
44765;BME280;30484;52.382;5.260;2022-12-29T03:23:02;99852.97;;;13.15;100.00
44765;BME280;30484;52.382;5.260;2022-12-29T03:25:37;99852.50;;;12.85;100.00
44765;BME280;30484;52.382;5.260;2022-12-29T03:28:13;99854.22;;;12.86;100.00
44765;BME280;30484;52.382;5.260;2022-12-29T03:30:46;99862.81;;;13.03;100.00
44765;BME280;30484;52.382;5.260;2022-12-29T03:33:18;99840.13;;;12.95;100.00
44765;BME280;30484;52.382;5.260;2022-12-29T03:35:57;99844.13;;;12.90;100.00
44765;BME280;30484;52.382;5.260;2022-12-29T03:38:34;99855.13;;;12.74;100.00
44765;BME280;30484;52.382;5.260;2022-12-29T03:41:08;99850.41;;;12.77;100.00
44765;BME280;30484;52.382;5.260;2022-12-29T03:43:39;99849.34;;;12.80;100.00
44765;BME280;30484;52.382;5.260;2022-12-29T03:46:08;99846.34;;;12.96;100.00
44765;BME280;30484;52.382;5.260;2022-12-29T03:48:39;99830.06;;;12.26;100.00
44765;BME280;30484;52.382;5.260;2022-12-29T03:51:11;99839.84;;;12.87;100.00
44765;BME280;30484;52.382;5.260;2022-12-29T03:53:40;99831.00;;;12.74;100.00
44765;BME280;30484;52.382;5.260;2022-12-29T03:58:53;99827.69;;;12.94;100.00
44765;BME280;30484;52.382;5.260;2022-12-29T04:01:32;99840.31;;;12.81;100.00
44765;BME280;30484;52.382;5.260;2022-12-29T04:04:08;99830.75;;;12.66;100.00
44765;BME280;30484;52.382;5.260;2022-12-29T04:06:39;99850.25;;;12.68;100.00
44765;BME280;30484;52.382;5.260;2022-12-29T04:09:09;99837.69;;;12.57;100.00
44765;BME280;30484;52.382;5.260;2022-12-29T04:11:41;99838.16;;;12.38;100.00
44765;BME280;30484;52.382;5.260;2022-12-29T04:18:37;99854.19;;;12.51;100.00
44765;BME280;30484;52.382;5.260;2022-12-29T04:21:13;99851.91;;;12.57;100.00
44765;BME280;30484;52.382;5.260;2022-12-29T04:23:48;99862.34;;;12.49;100.00
44765;BME280;30484;52.382;5.260;2022-12-29T04:26:17;99843.28;;;13.01;100.00
44765;BME280;30484;52.382;5.260;2022-12-29T04:28:45;99843.34;;;12.76;100.00
44765;BME280;30484;52.382;5.260;2022-12-29T04:31:14;99838.53;;;12.57;100.00
44765;BME280;30484;52.382;5.260;2022-12-29T04:33:42;99828.81;;;12.68;100.00
44765;BME280;30484;52.382;5.260;2022-12-29T04:36:11;99836.31;;;12.63;100.00
44765;BME280;30484;52.382;5.260;2022-12-29T04:38:41;99839.53;;;12.68;100.00
44765;BME280;30484;52.382;5.260;2022-12-29T04:41:12;99847.09;;;12.74;100.00
44765;BME280;30484;52.382;5.260;2022-12-29T04:43:41;99841.47;;;12.66;100.00
44765;BME280;30484;52.382;5.260;2022-12-29T04:46:11;99844.53;;;12.48;100.00
44765;BME280;30484;52.382;5.260;2022-12-29T04:48:43;99848.28;;;12.34;100.00
44765;BME280;30484;52.382;5.260;2022-12-29T04:51:12;99856.25;;;12.47;100.00
44765;BME280;30484;52.382;5.260;2022-12-29T04:54:03;99842.84;;;12.47;100.00
44765;BME280;30484;52.382;5.260;2022-12-29T04:57:03;99847.03;;;12.38;100.00
44765;BME280;30484;52.382;5.260;2022-12-29T04:59:43;99842.63;;;12.50;100.00
44765;BME280;30484;52.382;5.260;2022-12-29T05:02:20;99856.81;;;12.39;100.00
44765;BME280;30484;52.382;5.260;2022-12-29T05:05:05;99846.59;;;12.20;100.00
44765;BME280;30484;52.382;5.260;2022-12-29T05:07:34;99841.00;;;12.23;100.00
44765;BME280;30484;52.382;5.260;2022-12-29T05:10:05;99847.03;;;12.38;100.00
44765;BME280;30484;52.382;5.260;2022-12-29T05:12:37;99853.78;;;12.44;100.00
44765;BME280;30484;52.382;5.260;2022-12-29T05:15:09;99848.66;;;12.41;100.00
44765;BME280;30484;52.382;5.260;2022-12-29T05:17:39;99855.59;;;12.19;100.00
44765;BME280;30484;52.382;5.260;2022-12-29T05:20:09;99858.81;;;12.24;100.00
44765;BME280;30484;52.382;5.260;2022-12-29T05:22:38;99863.75;;;11.92;100.00
44765;BME280;30484;52.382;5.260;2022-12-29T05:25:08;99866.84;;;12.24;100.00
44765;BME280;30484;52.382;5.260;2022-12-29T05:27:38;99855.03;;;12.27;100.00
44765;BME280;30484;52.382;5.260;2022-12-29T05:30:09;99867.13;;;12.33;100.00
44765;BME280;30484;52.382;5.260;2022-12-29T05:32:38;99869.34;;;12.39;100.00
44765;BME280;30484;52.382;5.260;2022-12-29T05:35:08;99879.69;;;12.19;100.00
44765;BME280;30484;52.382;5.260;2022-12-29T05:37:37;99875.13;;;12.08;100.00
44765;BME280;30484;52.382;5.260;2022-12-29T05:40:09;99874.00;;;12.24;100.00
44765;BME280;30484;52.382;5.260;2022-12-29T05:42:40;99883.16;;;12.08;100.00
44765;BME280;30484;52.382;5.260;2022-12-29T05:45:10;99895.59;;;12.34;100.00
44765;BME280;30484;52.382;5.260;2022-12-29T05:47:39;99887.28;;;12.13;100.00
44765;BME280;30484;52.382;5.260;2022-12-29T05:50:08;99899.34;;;12.31;100.00
44765;BME280;30484;52.382;5.260;2022-12-29T05:52:38;99897.06;;;12.14;100.00
44765;BME280;30484;52.382;5.260;2022-12-29T05:55:08;99901.19;;;12.31;100.00
44765;BME280;30484;52.382;5.260;2022-12-29T05:57:39;99889.47;;;12.07;100.00
44765;BME280;30484;52.382;5.260;2022-12-29T06:00:11;99886.91;;;12.06;100.00
44765;BME280;30484;52.382;5.260;2022-12-29T06:02:41;99890.13;;;11.98;100.00
44765;BME280;30484;52.382;5.260;2022-12-29T06:05:12;99889.38;;;11.83;100.00
44765;BME280;30484;52.382;5.260;2022-12-29T06:07:41;99888.59;;;12.07;100.00
44765;BME280;30484;52.382;5.260;2022-12-29T06:10:12;99896.72;;;11.92;100.00
44765;BME280;30484;52.382;5.260;2022-12-29T06:12:43;99903.19;;;12.03;100.00
44765;BME280;30484;52.382;5.260;2022-12-29T06:15:13;99912.69;;;12.07;100.00
44765;BME280;30484;52.382;5.260;2022-12-29T06:17:43;99913.78;;;12.04;100.00
44765;BME280;30484;52.382;5.260;2022-12-29T06:20:13;99926.50;;;11.88;100.00
44765;BME280;30484;52.382;5.260;2022-12-29T06:22:41;99919.25;;;12.03;100.00
44765;BME280;30484;52.382;5.260;2022-12-29T06:25:11;99923.47;;;12.18;100.00
44765;BME280;30484;52.382;5.260;2022-12-29T06:27:42;99922.06;;;12.25;100.00
44765;BME280;30484;52.382;5.260;2022-12-29T06:30:12;99914.50;;;12.19;100.00
44765;BME280;30484;52.382;5.260;2022-12-29T06:32:44;99921.16;;;11.88;100.00
44765;BME280;30484;52.382;5.260;2022-12-29T06:35:15;99921.16;;;12.14;100.00
44765;BME280;30484;52.382;5.260;2022-12-29T06:37:45;99926.69;;;12.23;100.00
44765;BME280;30484;52.382;5.260;2022-12-29T06:40:16;99934.88;;;12.09;100.00
44765;BME280;30484;52.382;5.260;2022-12-29T06:42:49;99921.59;;;12.07;100.00
44765;BME280;30484;52.382;5.260;2022-12-29T06:45:17;99928.19;;;12.28;100.00
44765;BME280;30484;52.382;5.260;2022-12-29T06:47:47;99933.47;;;12.16;100.00
44765;BME280;30484;52.382;5.260;2022-12-29T06:50:16;99934.78;;;11.98;100.00
44765;BME280;30484;52.382;5.260;2022-12-29T06:52:45;99945.25;;;12.01;100.00
44765;BME280;30484;52.382;5.260;2022-12-29T06:55:15;99938.69;;;12.31;100.00
44765;BME280;30484;52.382;5.260;2022-12-29T06:58:01;99945.66;;;12.20;100.00
44765;BME280;30484;52.382;5.260;2022-12-29T07:00:30;99947.13;;;12.37;100.00
44765;BME280;30484;52.382;5.260;2022-12-29T07:02:59;99936.84;;;12.31;100.00
44765;BME280;30484;52.382;5.260;2022-12-29T07:05:29;99938.06;;;12.01;100.00
44765;BME280;30484;52.382;5.260;2022-12-29T07:08:00;99933.59;;;12.02;100.00
44765;BME280;30484;52.382;5.260;2022-12-29T07:10:31;99920.63;;;12.08;100.00
44765;BME280;30484;52.382;5.260;2022-12-29T07:13:02;99921.16;;;12.01;100.00
44765;BME280;30484;52.382;5.260;2022-12-29T07:15:31;99927.34;;;12.27;100.00
44765;BME280;30484;52.382;5.260;2022-12-29T07:18:02;99914.41;;;12.08;100.00
44765;BME280;30484;52.382;5.260;2022-12-29T07:20:31;99928.44;;;12.12;100.00
44765;BME280;30484;52.382;5.260;2022-12-29T07:23:01;99913.44;;;12.09;100.00
44765;BME280;30484;52.382;5.260;2022-12-29T07:25:31;99919.63;;;12.22;100.00
44765;BME280;30484;52.382;5.260;2022-12-29T07:28:02;99928.88;;;12.05;100.00
44765;BME280;30484;52.382;5.260;2022-12-29T07:30:31;99926.28;;;12.17;100.00
44765;BME280;30484;52.382;5.260;2022-12-29T07:33:01;99922.03;;;12.14;100.00
44765;BME280;30484;52.382;5.260;2022-12-29T07:35:33;99930.78;;;12.16;100.00
44765;BME280;30484;52.382;5.260;2022-12-29T07:38:02;99936.16;;;12.16;100.00
44765;BME280;30484;52.382;5.260;2022-12-29T07:40:33;99931.25;;;12.10;100.00
44765;BME280;30484;52.382;5.260;2022-12-29T07:43:05;99933.78;;;12.24;100.00
44765;BME280;30484;52.382;5.260;2022-12-29T07:45:35;99929.69;;;12.32;100.00
44765;BME280;30484;52.382;5.260;2022-12-29T07:48:05;99938.38;;;12.22;100.00
44765;BME280;30484;52.382;5.260;2022-12-29T07:50:35;99938.41;;;11.97;100.00
44765;BME280;30484;52.382;5.260;2022-12-29T07:53:05;99949.63;;;12.28;100.00
44765;BME280;30484;52.382;5.260;2022-12-29T07:55:34;99948.03;;;11.86;100.00
44765;BME280;30484;52.382;5.260;2022-12-29T07:58:04;99940.44;;;12.19;100.00
44765;BME280;30484;52.382;5.260;2022-12-29T08:00:34;99947.41;;;11.96;100.00
44765;BME280;30484;52.382;5.260;2022-12-29T08:03:05;99940.63;;;11.77;100.00
44765;BME280;30484;52.382;5.260;2022-12-29T08:05:34;99946.63;;;11.81;100.00
44765;BME280;30484;52.382;5.260;2022-12-29T08:08:04;99937.22;;;12.01;100.00
44765;BME280;30484;52.382;5.260;2022-12-29T08:10:32;99938.06;;;11.88;100.00
44765;BME280;30484;52.382;5.260;2022-12-29T08:13:01;99970.63;;;11.95;100.00
44765;BME280;30484;52.382;5.260;2022-12-29T08:15:32;99964.81;;;11.63;100.00
44765;BME280;30484;52.382;5.260;2022-12-29T08:18:04;99961.75;;;11.95;100.00
44765;BME280;30484;52.382;5.260;2022-12-29T08:20:33;99977.22;;;11.64;100.00
44765;BME280;30484;52.382;5.260;2022-12-29T08:23:12;99981.53;;;11.66;100.00
44765;BME280;30484;52.382;5.260;2022-12-29T08:25:41;99971.03;;;11.50;100.00
44765;BME280;30484;52.382;5.260;2022-12-29T08:28:10;99963.13;;;11.87;100.00
44765;BME280;30484;52.382;5.260;2022-12-29T08:30:43;99954.09;;;11.63;100.00
44765;BME280;30484;52.382;5.260;2022-12-29T08:33:12;99965.91;;;11.73;100.00
44765;BME280;30484;52.382;5.260;2022-12-29T08:35:43;99965.13;;;11.58;100.00
44765;BME280;30484;52.382;5.260;2022-12-29T08:38:14;99973.06;;;11.85;100.00
44765;BME280;30484;52.382;5.260;2022-12-29T08:40:44;99969.66;;;11.70;100.00
44765;BME280;30484;52.382;5.260;2022-12-29T08:43:12;99972.53;;;11.54;100.00
44765;BME280;30484;52.382;5.260;2022-12-29T08:45:46;99972.09;;;11.61;100.00
44765;BME280;30484;52.382;5.260;2022-12-29T08:48:17;99968.25;;;11.78;100.00
44765;BME280;30484;52.382;5.260;2022-12-29T08:50:47;99975.50;;;11.63;100.00
44765;BME280;30484;52.382;5.260;2022-12-29T08:53:17;99976.19;;;11.79;100.00
44765;BME280;30484;52.382;5.260;2022-12-29T08:55:47;99964.41;;;11.69;100.00
44765;BME280;30484;52.382;5.260;2022-12-29T08:58:31;99967.81;;;11.71;100.00
44765;BME280;30484;52.382;5.260;2022-12-29T09:01:01;99967.19;;;11.54;100.00
44765;BME280;30484;52.382;5.260;2022-12-29T09:03:31;99979.34;;;11.58;100.00
44765;BME280;30484;52.382;5.260;2022-12-29T09:06:19;99986.84;;;11.40;100.00
44765;BME280;30484;52.382;5.260;2022-12-29T09:08:49;99998.63;;;11.64;100.00
44765;BME280;30484;52.382;5.260;2022-12-29T09:11:21;100012.88;;;11.77;100.00
44765;BME280;30484;52.382;5.260;2022-12-29T09:13:51;99996.63;;;11.27;100.00
44765;BME280;30484;52.382;5.260;2022-12-29T09:16:26;100020.78;;;11.26;100.00
44765;BME280;30484;52.382;5.260;2022-12-29T09:18:55;100026.22;;;11.51;100.00
44765;BME280;30484;52.382;5.260;2022-12-29T09:21:24;100035.81;;;11.41;100.00
44765;BME280;30484;52.382;5.260;2022-12-29T09:23:53;100045.91;;;11.50;100.00
44765;BME280;30484;52.382;5.260;2022-12-29T09:26:21;100040.78;;;11.47;100.00
44765;BME280;30484;52.382;5.260;2022-12-29T09:28:49;100047.63;;;11.64;100.00
44765;BME280;30484;52.382;5.260;2022-12-29T09:31:18;100054.00;;;11.36;100.00
44765;BME280;30484;52.382;5.260;2022-12-29T09:33:49;100046.13;;;11.47;100.00
44765;BME280;30484;52.382;5.260;2022-12-29T09:36:17;100057.63;;;11.35;100.00
44765;BME280;30484;52.382;5.260;2022-12-29T09:38:46;100073.09;;;11.57;100.00
44765;BME280;30484;52.382;5.260;2022-12-29T09:41:20;100082.84;;;11.58;100.00
44765;BME280;30484;52.382;5.260;2022-12-29T09:44:06;100076.06;;;11.52;100.00
44765;BME280;30484;52.382;5.260;2022-12-29T09:46:39;100086.09;;;11.36;100.00
44765;BME280;30484;52.382;5.260;2022-12-29T09:49:21;100084.88;;;11.54;100.00
44765;BME280;30484;52.382;5.260;2022-12-29T09:51:55;100100.00;;;11.41;100.00
44765;BME280;30484;52.382;5.260;2022-12-29T09:54:39;100109.19;;;11.37;100.00
44765;BME280;30484;52.382;5.260;2022-12-29T09:57:21;100112.69;;;11.52;100.00
44765;BME280;30484;52.382;5.260;2022-12-29T09:59:59;100116.97;;;11.54;100.00
44765;BME280;30484;52.382;5.260;2022-12-29T10:02:38;100123.44;;;11.65;100.00
44765;BME280;30484;52.382;5.260;2022-12-29T10:05:39;100114.41;;;11.53;100.00
44765;BME280;30484;52.382;5.260;2022-12-29T10:08:29;100133.03;;;11.54;100.00
44765;BME280;30484;52.382;5.260;2022-12-29T10:11:13;100135.56;;;11.83;100.00
44765;BME280;30484;52.382;5.260;2022-12-29T10:14:13;100127.06;;;11.64;100.00
44765;BME280;30484;52.382;5.260;2022-12-29T10:16:53;100147.44;;;12.06;100.00
44765;BME280;30484;52.382;5.260;2022-12-29T10:19:44;100132.22;;;12.07;100.00
44765;BME280;30484;52.382;5.260;2022-12-29T10:22:30;100141.66;;;11.85;100.00
44765;BME280;30484;52.382;5.260;2022-12-29T10:25:10;100147.59;;;11.90;100.00
44765;BME280;30484;52.382;5.260;2022-12-29T10:27:41;100143.47;;;11.72;100.00
44765;BME280;30484;52.382;5.260;2022-12-29T10:30:13;100155.53;;;11.65;100.00
44765;BME280;30484;52.382;5.260;2022-12-29T10:32:47;100167.69;;;11.83;100.00
44765;BME280;30484;52.382;5.260;2022-12-29T10:35:20;100159.66;;;11.83;100.00
44765;BME280;30484;52.382;5.260;2022-12-29T10:37:58;100170.13;;;12.01;100.00
44765;BME280;30484;52.382;5.260;2022-12-29T10:40:36;100169.66;;;12.21;100.00
44765;BME280;30484;52.382;5.260;2022-12-29T10:43:19;100179.91;;;11.87;100.00
44765;BME280;30484;52.382;5.260;2022-12-29T10:45:56;100181.31;;;11.93;100.00
44765;BME280;30484;52.382;5.260;2022-12-29T10:48:30;100182.47;;;12.16;100.00
44765;BME280;30484;52.382;5.260;2022-12-29T10:51:02;100187.03;;;12.41;100.00
44765;BME280;30484;52.382;5.260;2022-12-29T10:53:42;100191.16;;;12.20;100.00
44765;BME280;30484;52.382;5.260;2022-12-29T10:56:21;100200.94;;;12.34;100.00
44765;BME280;30484;52.382;5.260;2022-12-29T10:58:55;100208.75;;;12.37;100.00
44765;BME280;30484;52.382;5.260;2022-12-29T11:01:36;100195.03;;;12.29;100.00
44765;BME280;30484;52.382;5.260;2022-12-29T11:04:22;100207.06;;;12.49;100.00
44765;BME280;30484;52.382;5.260;2022-12-29T11:06:54;100221.09;;;12.52;100.00
44765;BME280;30484;52.382;5.260;2022-12-29T11:09:28;100215.69;;;12.26;100.00
44765;BME280;30484;52.382;5.260;2022-12-29T11:12:24;100223.69;;;12.80;100.00
44765;BME280;30484;52.382;5.260;2022-12-29T11:15:12;100210.84;;;12.85;100.00
44765;BME280;30484;52.382;5.260;2022-12-29T11:17:46;100212.56;;;12.60;100.00
44765;BME280;30484;52.382;5.260;2022-12-29T11:20:35;100228.66;;;12.73;100.00
44765;BME280;30484;52.382;5.260;2022-12-29T11:23:22;100223.44;;;12.44;100.00
44765;BME280;30484;52.382;5.260;2022-12-29T11:26:23;100222.84;;;12.66;100.00
44765;BME280;30484;52.382;5.260;2022-12-29T11:29:22;100231.31;;;12.73;100.00
44765;BME280;30484;52.382;5.260;2022-12-29T11:31:55;100237.31;;;13.02;100.00
44765;BME280;30484;52.382;5.260;2022-12-29T11:34:30;100247.19;;;12.76;100.00
44765;BME280;30484;52.382;5.260;2022-12-29T11:37:03;100244.72;;;12.99;100.00
44765;BME280;30484;52.382;5.260;2022-12-29T11:39:39;100245.13;;;13.05;100.00
44765;BME280;30484;52.382;5.260;2022-12-29T11:42:17;100271.09;;;13.05;100.00
44765;BME280;30484;52.382;5.260;2022-12-29T11:44:49;100260.28;;;13.06;100.00
44765;BME280;30484;52.382;5.260;2022-12-29T11:47:28;100280.22;;;12.89;100.00
44765;BME280;30484;52.382;5.260;2022-12-29T11:50:01;100289.03;;;13.04;100.00
44765;BME280;30484;52.382;5.260;2022-12-29T11:52:36;100290.81;;;12.78;100.00
44765;BME280;30484;52.382;5.260;2022-12-29T11:55:33;100290.50;;;12.70;100.00
44765;BME280;30484;52.382;5.260;2022-12-29T11:58:04;100281.38;;;12.85;100.00
44765;BME280;30484;52.382;5.260;2022-12-29T12:00:38;100281.63;;;12.95;100.00
44765;BME280;30484;52.382;5.260;2022-12-29T12:03:16;100288.34;;;12.75;100.00
44765;BME280;30484;52.382;5.260;2022-12-29T12:05:48;100285.31;;;12.67;100.00
44765;BME280;30484;52.382;5.260;2022-12-29T12:08:31;100293.06;;;12.58;100.00
44765;BME280;30484;52.382;5.260;2022-12-29T12:11:10;100284.38;;;12.68;100.00
44765;BME280;30484;52.382;5.260;2022-12-29T12:13:50;100283.75;;;12.64;100.00
44765;BME280;30484;52.382;5.260;2022-12-29T12:16:31;100279.22;;;12.65;100.00
44765;BME280;30484;52.382;5.260;2022-12-29T12:19:12;100277.53;;;12.76;100.00
44765;BME280;30484;52.382;5.260;2022-12-29T12:21:49;100292.75;;;12.76;100.00
44765;BME280;30484;52.382;5.260;2022-12-29T12:24:38;100291.69;;;12.78;100.00
44765;BME280;30484;52.382;5.260;2022-12-29T12:27:15;100294.13;;;12.56;100.00
44765;BME280;30484;52.382;5.260;2022-12-29T12:29:58;100291.13;;;12.60;100.00
44765;BME280;30484;52.382;5.260;2022-12-29T12:32:44;100287.84;;;12.83;100.00
44765;BME280;30484;52.382;5.260;2022-12-29T12:35:21;100288.47;;;12.73;100.00
44765;BME280;30484;52.382;5.260;2022-12-29T12:38:15;100290.91;;;12.76;100.00
44765;BME280;30484;52.382;5.260;2022-12-29T12:41:05;100285.44;;;12.65;100.00
44765;BME280;30484;52.382;5.260;2022-12-29T12:43:46;100291.38;;;12.96;100.00
44765;BME280;30484;52.382;5.260;2022-12-29T12:50:35;100305.63;;;13.22;100.00
44765;BME280;30484;52.382;5.260;2022-12-29T12:53:29;100296.84;;;13.33;100.00
44765;BME280;30484;52.382;5.260;2022-12-29T12:59:42;100315.53;;;13.22;100.00
44765;BME280;30484;52.382;5.260;2022-12-29T13:02:32;100329.47;;;13.14;100.00
44765;BME280;30484;52.382;5.260;2022-12-29T13:05:29;100326.28;;;13.35;100.00
44765;BME280;30484;52.382;5.260;2022-12-29T13:08:44;100315.50;;;12.83;100.00
44765;BME280;30484;52.382;5.260;2022-12-29T13:11:32;100321.50;;;13.00;100.00
44765;BME280;30484;52.382;5.260;2022-12-29T13:14:23;100325.59;;;13.05;100.00
44765;BME280;30484;52.382;5.260;2022-12-29T13:17:00;100323.09;;;12.89;100.00
44765;BME280;30484;52.382;5.260;2022-12-29T13:19:39;100326.69;;;13.03;100.00
44765;BME280;30484;52.382;5.260;2022-12-29T13:22:19;100326.03;;;12.99;100.00
44765;BME280;30484;52.382;5.260;2022-12-29T13:25:02;100346.56;;;12.73;100.00
44765;BME280;30484;52.382;5.260;2022-12-29T13:27:43;100343.22;;;12.69;100.00
44765;BME280;30484;52.382;5.260;2022-12-29T13:30:18;100346.25;;;12.77;100.00
44765;BME280;30484;52.382;5.260;2022-12-29T13:32:58;100347.66;;;12.83;100.00
44765;BME280;30484;52.382;5.260;2022-12-29T13:35:56;100355.63;;;13.10;100.00
44765;BME280;30484;52.382;5.260;2022-12-29T13:38:35;100361.94;;;12.97;100.00
44765;BME280;30484;52.382;5.260;2022-12-29T13:41:07;100365.38;;;12.99;100.00
44765;BME280;30484;52.382;5.260;2022-12-29T13:43:40;100354.72;;;12.71;100.00
44765;BME280;30484;52.382;5.260;2022-12-29T13:46:17;100348.34;;;12.59;100.00
44765;BME280;30484;52.382;5.260;2022-12-29T13:48:53;100351.75;;;12.89;100.00
44765;BME280;30484;52.382;5.260;2022-12-29T13:51:24;100353.75;;;12.85;100.00
44765;BME280;30484;52.382;5.260;2022-12-29T13:54:13;100359.00;;;12.74;100.00
44765;BME280;30484;52.382;5.260;2022-12-29T13:56:56;100357.13;;;13.02;100.00
44765;BME280;30484;52.382;5.260;2022-12-29T13:59:59;100355.78;;;12.69;100.00